Hauptseite
METAR-TAF:

METAR-TAF

Flughäfen :

Flughafen Akureyri

Akureyri, Island

Breite: 65-41N, Länge: 018-05W, Höhe: 23 m

Beobachtung

Neuester Wetterbericht von vor 57 Minuten, um 00:00 UTC
Wind 7 kt aus Süd/Südwest, variierte zwischen Süd und West/Südwest
Temperatur 10°C
Luftfeuchtigkeit 71%
Luftdruck 998 hPa
Sichtweite 10 km oder mehr
Durchbrochene Bewölkung in der Höhe von 7500 ft
Durchbrochene Bewölkung in der Höhe von 21000 ft

METAR: BIAR 240000Z 20007KT 170V240 9999 BKN075 BKN210 10/05 Q0998

Zeit: 00:57 (00:57 UTC)

Prognose

Neuester Wetterbericht von vor 2 Stunden und 26 Minuten, um 22:31 UTC
Gültige Prognose vom 24 um 00 UTC bis 25 um 00 UTC
Wind 10 kt aus Süd
Sichtweite 10 km oder mehr
Aufgelockert bewölkt in der Höhe von 4500 ft

TAF: BIAR 232231Z 2400/2500 19010KT 9999 SCT045 TX16/2415Z TN07/2403Z

Wetterbeobachtungen und Prognosen von mehr als 4000 Flughäfen (METAR und TAF Bericht).

Die verfügbaren Stationen werden durch gelbe und rote Markierungen auf der Karte dargestellt.

Führen Sie die Maus auf sie, um den Namen der Station zu sehen.

Darauf klicken, um die Beobachtung von Wetterbeobachtungen und Prognosen zu sehen.

Um die Karte zu ändern : klicken Sie auf den grünen Tasten mit einem schwarzen Kreuz Zum Vergrößern, auf den grünen Button mit einem Gedankenstrich zu verkleinern, oder auf die grünen Pfeile für benachbarte Karten.


METAR-TAF: